createdAt,value
2023-07-01T00:00:18.862Z,12.20
2023-07-01T00:05:50.847Z,12.23
2023-07-01T00:11:13.338Z,12.08
2023-07-01T00:16:35.635Z,12.04
2023-07-01T00:21:58.094Z,12.06
2023-07-01T00:27:20.564Z,11.97
2023-07-01T00:32:45.881Z,12.04
2023-07-01T00:38:08.911Z,11.92
2023-07-01T00:43:30.805Z,11.98
2023-07-01T00:48:54.041Z,11.85
2023-07-01T00:54:16.864Z,11.86
2023-07-01T00:59:40.468Z,11.80
2023-07-01T01:05:16.202Z,11.89
2023-07-01T01:10:43.123Z,11.96
2023-07-01T01:16:05.764Z,12.07
2023-07-01T01:21:33.188Z,11.93
2023-07-01T01:26:59.508Z,11.95
2023-07-01T01:32:24.577Z,11.86
2023-07-01T01:38:25.018Z,12.02
2023-07-01T01:43:54.079Z,12.05
2023-07-01T01:49:16.868Z,12.06
2023-07-01T01:54:39.964Z,12.17
2023-07-01T02:00:02.118Z,12.16
2023-07-01T02:05:36.620Z,12.20
2023-07-01T02:10:59.491Z,12.24
2023-07-01T02:16:21.455Z,12.22
2023-07-01T02:21:43.805Z,12.05
2023-07-01T02:27:06.596Z,12.24
2023-07-01T02:32:29.166Z,12.27
2023-07-01T02:37:51.542Z,12.16
2023-07-01T02:43:14.518Z,12.33
2023-07-01T02:48:36.966Z,12.11
2023-07-01T02:53:59.287Z,12.23
2023-07-01T02:59:21.459Z,12.35
2023-07-01T03:04:44.091Z,12.41
2023-07-01T03:10:08.276Z,12.32
2023-07-01T03:15:33.049Z,12.47
2023-07-01T03:20:59.552Z,12.39
2023-07-01T03:26:22.171Z,12.48
2023-07-01T03:31:44.607Z,12.53
2023-07-01T03:37:07.849Z,12.58
2023-07-01T03:42:32.138Z,12.50
2023-07-01T03:47:54.265Z,12.47
2023-07-01T03:53:15.751Z,12.55
2023-07-01T03:58:37.714Z,12.59
2023-07-01T04:03:59.594Z,12.56
2023-07-01T04:09:22.480Z,12.60
2023-07-01T04:14:44.351Z,12.67
2023-07-01T04:20:07.985Z,12.65
2023-07-01T04:25:30.222Z,12.77
2023-07-01T04:30:52.531Z,12.75
2023-07-01T04:36:14.543Z,12.84
2023-07-01T04:41:36.993Z,13.10
2023-07-01T04:46:59.451Z,13.26
2023-07-01T04:52:26.497Z,13.20
2023-07-01T04:57:49.060Z,13.29
2023-07-01T05:03:11.470Z,13.12
2023-07-01T05:08:33.950Z,13.27
2023-07-01T05:13:55.860Z,13.44
2023-07-01T05:19:17.887Z,13.53
2023-07-01T05:24:50.304Z,13.41
2023-07-01T05:30:15.300Z,13.41
2023-07-01T05:35:37.078Z,13.46
2023-07-01T05:40:59.322Z,13.47
2023-07-01T05:46:21.149Z,13.57
2023-07-01T05:51:43.111Z,13.68
2023-07-01T05:57:06.051Z,13.65
2023-07-01T06:02:27.782Z,13.69
2023-07-01T06:07:51.097Z,13.63
2023-07-01T06:13:12.997Z,13.82
2023-07-01T06:18:35.052Z,13.71
2023-07-01T06:23:57.587Z,14.07
2023-07-01T06:29:19.821Z,14.03
2023-07-01T06:34:42.390Z,14.03
2023-07-01T06:40:05.016Z,13.91
2023-07-01T06:45:27.341Z,13.98
2023-07-01T06:50:49.741Z,13.92
2023-07-01T06:56:13.018Z,13.75
2023-07-01T07:01:35.686Z,13.82
2023-07-01T07:06:58.066Z,13.98
2023-07-01T07:12:20.067Z,14.14
2023-07-01T07:17:42.620Z,14.16
2023-07-01T07:23:07.941Z,14.61
2023-07-01T07:28:29.973Z,14.82
2023-07-01T07:33:51.943Z,14.74
2023-07-01T07:39:16.019Z,15.01
2023-07-01T07:44:38.041Z,15.01
2023-07-01T07:50:01.964Z,15.18
2023-07-01T07:55:27.783Z,15.38
2023-07-01T08:00:50.060Z,15.39
2023-07-01T08:06:12.155Z,15.82
2023-07-01T08:11:34.418Z,15.92
2023-07-01T08:16:56.899Z,16.01
2023-07-01T08:22:19.846Z,15.80
2023-07-01T08:27:41.970Z,15.71
2023-07-01T08:33:04.438Z,15.54
2023-07-01T08:38:37.448Z,15.57
2023-07-01T08:44:02.231Z,16.15
2023-07-01T08:49:25.849Z,16.60
2023-07-01T08:54:48.650Z,17.90
2023-07-01T09:00:13.986Z,18.00
2023-07-01T09:05:36.308Z,17.72
2023-07-01T09:10:58.454Z,18.00
2023-07-01T09:16:37.769Z,18.95
2023-07-01T09:22:12.601Z,17.64
2023-07-01T09:27:50.976Z,18.15
2023-07-01T09:33:17.225Z,17.98
2023-07-01T09:38:55.453Z,17.35
2023-07-01T09:44:21.172Z,17.22
2023-07-01T09:49:46.845Z,17.04
2023-07-01T09:55:09.885Z,16.84
2023-07-01T10:00:35.210Z,17.21
2023-07-01T10:05:59.292Z,17.17
2023-07-01T10:11:25.057Z,18.39
2023-07-01T10:16:50.294Z,18.36
2023-07-01T10:22:28.416Z,19.11
2023-07-01T10:27:50.242Z,18.43
2023-07-01T10:33:37.753Z,18.68
2023-07-01T10:39:33.208Z,18.16
2023-07-01T10:44:55.637Z,18.08
2023-07-01T10:50:20.067Z,17.20
2023-07-01T10:55:49.303Z,17.23
2023-07-01T11:01:44.051Z,16.98
2023-07-01T11:07:06.940Z,17.07
2023-07-01T11:12:32.199Z,17.22
2023-07-01T11:17:56.514Z,17.62
2023-07-01T11:23:19.052Z,18.69
2023-07-01T11:28:41.303Z,18.95
2023-07-01T11:34:03.903Z,18.42
2023-07-01T11:39:27.076Z,19.19
2023-07-01T11:44:49.444Z,19.43
2023-07-01T11:50:11.817Z,19.88
2023-07-01T11:55:37.032Z,19.35
2023-07-01T12:00:59.979Z,19.34
2023-07-01T12:06:24.113Z,18.79
2023-07-01T12:11:50.841Z,18.20
2023-07-01T12:17:33.701Z,17.65
2023-07-01T12:22:56.081Z,17.80
2023-07-01T12:28:21.669Z,17.82
2023-07-01T12:33:44.017Z,18.00
2023-07-01T12:39:08.991Z,17.54
2023-07-01T12:44:31.474Z,16.53
2023-07-01T12:49:53.591Z,16.27
2023-07-01T12:55:15.489Z,16.52
2023-07-01T13:00:37.602Z,17.02
2023-07-01T13:06:01.068Z,17.00
2023-07-01T13:11:24.614Z,17.16
2023-07-01T13:16:46.721Z,17.49
2023-07-01T13:22:09.083Z,17.08
2023-07-01T13:27:32.000Z,16.92
2023-07-01T13:32:54.156Z,16.84
2023-07-01T13:38:18.974Z,16.80
2023-07-01T13:43:41.434Z,16.72
2023-07-01T13:49:03.588Z,16.62
2023-07-01T13:54:28.647Z,16.65
2023-07-01T13:59:50.522Z,16.59
2023-07-01T14:05:12.785Z,16.29
2023-07-01T14:10:41.650Z,16.29
2023-07-01T14:16:04.348Z,16.29
2023-07-01T14:21:32.192Z,16.31
2023-07-01T14:26:56.372Z,16.41
2023-07-01T14:32:20.891Z,16.60
2023-07-01T14:37:49.343Z,16.73
2023-07-01T14:43:13.174Z,16.82
2023-07-01T14:48:35.524Z,16.84
2023-07-01T14:53:59.049Z,16.92
2023-07-01T14:59:21.135Z,16.89
2023-07-01T15:04:43.578Z,17.06
2023-07-01T15:10:09.332Z,17.19
2023-07-01T15:15:31.781Z,17.40
2023-07-01T15:20:54.761Z,18.16
2023-07-01T15:26:16.837Z,18.61
2023-07-01T15:31:40.049Z,18.11
2023-07-01T15:37:02.449Z,17.60
2023-07-01T15:42:24.621Z,17.46
2023-07-01T15:47:47.188Z,17.36
2023-07-01T15:53:09.397Z,17.19
2023-07-01T15:58:32.446Z,17.24
2023-07-01T16:03:56.069Z,17.28
2023-07-01T16:09:45.598Z,17.42
2023-07-01T16:15:21.285Z,17.37
2023-07-01T16:20:47.660Z,17.41
2023-07-01T16:26:10.526Z,17.53
2023-07-01T16:31:33.082Z,17.60
2023-07-01T16:36:55.886Z,17.73
2023-07-01T16:42:20.691Z,17.86
2023-07-01T16:47:43.021Z,17.87
2023-07-01T16:53:05.033Z,17.82
2023-07-01T16:58:43.647Z,17.52
2023-07-01T17:04:05.832Z,17.24
2023-07-01T17:09:47.961Z,17.06
2023-07-01T17:15:26.577Z,16.85
2023-07-01T17:20:48.670Z,16.67
2023-07-01T17:26:10.899Z,16.39
2023-07-01T17:31:32.918Z,16.25
2023-07-01T17:36:57.532Z,15.96
2023-07-01T17:42:19.921Z,15.81
2023-07-01T17:47:43.389Z,15.64
2023-07-01T17:53:06.095Z,15.60
2023-07-01T17:58:29.219Z,15.42
2023-07-01T18:03:51.573Z,15.33
2023-07-01T18:09:18.904Z,15.13
2023-07-01T18:14:41.063Z,15.08
2023-07-01T18:20:06.508Z,15.03
2023-07-01T18:25:31.926Z,15.10
2023-07-01T18:30:54.340Z,14.97
2023-07-01T18:36:16.570Z,14.93
2023-07-01T18:41:38.969Z,14.73
2023-07-01T18:47:01.217Z,14.88
2023-07-01T18:52:24.165Z,14.71
2023-07-01T18:57:45.916Z,14.65
2023-07-01T19:03:07.914Z,14.67
2023-07-01T19:08:30.585Z,14.51
2023-07-01T19:13:52.522Z,14.44
2023-07-01T19:19:21.779Z,14.52
2023-07-01T19:24:43.684Z,14.49
2023-07-01T19:30:16.947Z,14.60
2023-07-01T19:35:39.422Z,14.63
2023-07-01T19:41:04.376Z,14.72
2023-07-01T19:46:26.471Z,14.49
2023-07-01T19:51:52.203Z,14.46
2023-07-01T19:57:14.300Z,14.29
2023-07-01T20:02:39.018Z,14.26
2023-07-01T20:08:00.983Z,14.22
2023-07-01T20:13:23.116Z,14.10
2023-07-01T20:18:45.437Z,14.10
2023-07-01T20:24:08.014Z,14.20
2023-07-01T20:29:30.439Z,14.08
2023-07-01T20:34:54.166Z,13.98
2023-07-01T20:40:16.143Z,14.00
2023-07-01T20:45:38.386Z,14.00
2023-07-01T20:51:03.975Z,14.01
2023-07-01T20:56:26.481Z,13.89
2023-07-01T21:01:48.955Z,13.71
2023-07-01T21:07:13.841Z,13.54
2023-07-01T21:12:35.952Z,13.43
2023-07-01T21:17:58.697Z,13.19
2023-07-01T21:23:20.526Z,13.06
2023-07-01T21:28:43.195Z,12.98
2023-07-01T21:34:07.132Z,12.89
2023-07-01T21:39:30.858Z,12.73
2023-07-01T21:44:53.051Z,12.67
2023-07-01T21:50:47.217Z,12.58
2023-07-01T21:56:20.710Z,12.59
2023-07-01T22:01:43.950Z,12.57
2023-07-01T22:07:06.347Z,12.36
2023-07-01T22:12:28.918Z,12.26
2023-07-01T22:17:51.309Z,12.22
2023-07-01T22:23:14.357Z,12.42
2023-07-01T22:28:36.418Z,12.44
2023-07-01T22:33:58.867Z,12.46
2023-07-01T22:39:21.232Z,12.16
2023-07-01T22:44:43.271Z,12.23
2023-07-01T22:50:18.041Z,12.08
2023-07-01T22:55:39.947Z,12.12
2023-07-01T23:01:04.499Z,12.03
2023-07-01T23:06:26.341Z,11.92
2023-07-01T23:11:48.421Z,11.81
2023-07-01T23:17:12.861Z,11.98
2023-07-01T23:22:37.569Z,11.81
2023-07-01T23:28:11.629Z,11.67
2023-07-01T23:33:33.901Z,11.73
2023-07-01T23:38:55.784Z,11.75
2023-07-01T23:44:20.119Z,11.83
2023-07-01T23:49:42.867Z,11.90
2023-07-01T23:55:06.216Z,11.48
